Time;durP1;ratioP1;P1;durP2;ratioP2;P2;SDS_P1;SDS_P2;PMS_P1;PMS_P2;Temp;Humidity;BMP_temperature;BMP_pressure;BME280_temperature;BME280_humidity;BME280_pressure;Samples;Min_cycle;Max_cycle;Signal;HPM_P1;HPM_P2
2021/04/23 00:01:52;;;;;;;8.93;2.50;;;;;;;;;;5077592;28;20044;-55
2021/04/23 00:04:19;;;;;;;6.88;2.47;;;;;;;;;;5081477;28;20044;-55
2021/04/23 00:06:47;;;;;;;7.63;2.53;;;;;;;;;;5076964;28;20048;-56
2021/04/23 00:09:16;;;;;;;7.45;2.28;;;;;;;;;;5082281;28;20056;-56
2021/04/23 00:11:43;;;;;;;7.68;2.92;;;;;;;;;;5078168;28;20191;-54
2021/04/23 00:14:11;;;;;;;8.45;2.63;;;;;;;;;;5081299;28;20052;-54
2021/04/23 00:16:37;;;;;;;8.88;2.55;;;;;;;;;;5079947;28;20045;-56
2021/04/23 00:19:07;;;;;;;9.07;2.40;;;;;;;;;;5079984;28;20032;-54
2021/04/23 00:21:34;;;;;;;8.07;2.28;;;;;;;;;;5080846;28;20044;-52
2021/04/23 00:24:00;;;;;;;11.57;2.65;;;;;;;;;;5077008;28;20041;-54
2021/04/23 00:26:27;;;;;;;9.70;2.63;;;;;;;;;;5083963;28;20036;-56
2021/04/23 00:28:53;;;;;;;11.98;2.85;;;;;;;;;;5077711;28;20064;-53
2021/04/23 00:31:19;;;;;;;13.50;2.78;;;;;;;;;;5081796;28;20076;-54
2021/04/23 00:33:45;;;;;;;10.40;2.28;;;;;;;;;;5074791;28;20048;-53
2021/04/23 00:36:11;;;;;;;15.23;2.65;;;;;;;;;;5060693;28;20102;-56
2021/04/23 00:38:38;;;;;;;9.50;2.45;;;;;;;;;;5067758;28;20040;-56
2021/04/23 00:41:05;;;;;;;8.65;2.60;;;;;;;;;;5081950;28;20033;-56
2021/04/23 00:43:33;;;;;;;9.02;2.67;;;;;;;;;;5078589;28;20055;-56
2021/04/23 00:45:59;;;;;;;14.07;3.40;;;;;;;;;;5081746;28;20124;-56
2021/04/23 00:48:26;;;;;;;9.82;2.75;;;;;;;;;;5078208;28;20056;-56
2021/04/23 00:50:53;;;;;;;6.97;2.63;;;;;;;;;;5080789;28;20093;-54
2021/04/23 00:53:21;;;;;;;9.52;2.40;;;;;;;;;;5076428;28;20064;-54
2021/04/23 00:55:47;;;;;;;7.57;2.53;;;;;;;;;;5081419;28;20071;-52
2021/04/23 00:58:14;;;;;;;10.98;2.33;;;;;;;;;;5079247;28;20094;-55
2021/04/23 01:00:42;;;;;;;6.93;2.47;;;;;;;;;;5078895;28;20041;-56
2021/04/23 01:03:09;;;;;;;9.43;2.70;;;;;;;;;;5080703;28;20028;-56
2021/04/23 01:05:35;;;;;;;8.50;2.45;;;;;;;;;;5078706;28;20043;-56
2021/04/23 01:08:02;;;;;;;7.00;2.65;;;;;;;;;;5081315;28;20071;-54
2021/04/23 01:10:28;;;;;;;9.73;2.38;;;;;;;;;;5076373;28;20036;-56
2021/04/23 01:12:57;;;;;;;9.80;2.75;;;;;;;;;;5079830;28;20213;-55
2021/04/23 01:15:23;;;;;;;7.43;2.13;;;;;;;;;;5076646;28;20125;-53
2021/04/23 01:17:51;;;;;;;9.00;2.17;;;;;;;;;;5080711;28;20076;-48
2021/04/23 01:20:17;;;;;;;8.85;2.65;;;;;;;;;;5078365;28;20070;-53
2021/04/23 01:22:44;;;;;;;6.28;2.28;;;;;;;;;;5082590;28;20040;-51
2021/04/23 01:25:11;;;;;;;7.30;2.13;;;;;;;;;;5076552;28;20090;-51
2021/04/23 01:27:38;;;;;;;9.50;2.20;;;;;;;;;;5080981;28;20047;-53
2021/04/23 01:30:05;;;;;;;14.73;2.70;;;;;;;;;;5076724;28;20047;-49
2021/04/23 01:32:32;;;;;;;7.60;2.55;;;;;;;;;;5080480;28;20044;-50
2021/04/23 01:34:58;;;;;;;10.63;2.35;;;;;;;;;;5086451;28;20113;-53
2021/04/23 01:37:24;;;;;;;10.00;2.40;;;;;;;;;;5080825;28;20032;-50
2021/04/23 01:39:51;;;;;;;7.47;2.00;;;;;;;;;;5078257;28;20094;-52
2021/04/23 01:42:17;;;;;;;7.70;2.38;;;;;;;;;;5079254;28;20055;-50
2021/04/23 01:44:43;;;;;;;6.07;2.20;;;;;;;;;;5079644;28;20099;-51
2021/04/23 01:47:10;;;;;;;11.77;2.28;;;;;;;;;;5076797;28;20084;-53
2021/04/23 01:49:37;;;;;;;7.30;2.28;;;;;;;;;;5079848;28;20032;-52
2021/04/23 01:52:05;;;;;;;9.10;2.35;;;;;;;;;;5075947;28;20037;-53
2021/04/23 01:54:31;;;;;;;8.23;2.63;;;;;;;;;;5080307;28;20060;-47
2021/04/23 01:56:58;;;;;;;8.10;1.90;;;;;;;;;;5075720;28;20044;-51
2021/04/23 01:59:25;;;;;;;10.50;2.30;;;;;;;;;;5081633;28;20055;-52
2021/04/23 02:01:51;;;;;;;9.13;2.30;;;;;;;;;;5074136;28;20040;-54
2021/04/23 02:04:18;;;;;;;5.90;1.80;;;;;;;;;;5081321;28;20094;-52
2021/04/23 02:06:46;;;;;;;7.05;2.30;;;;;;;;;;5078784;28;20040;-52
2021/04/23 02:09:13;;;;;;;10.02;2.00;;;;;;;;;;5082683;28;20037;-54
2021/04/23 02:11:40;;;;;;;11.55;2.50;;;;;;;;;;5079173;28;20120;-54
2021/04/23 02:14:07;;;;;;;11.80;2.67;;;;;;;;;;5083008;28;20055;-54
2021/04/23 02:16:33;;;;;;;7.07;2.28;;;;;;;;;;5079968;28;20052;-50
2021/04/23 02:18:59;;;;;;;7.15;2.20;;;;;;;;;;5084338;28;20055;-53
2021/04/23 02:21:25;;;;;;;8.30;2.60;;;;;;;;;;5081405;28;20044;-51
2021/04/23 02:23:52;;;;;;;8.93;2.50;;;;;;;;;;5082808;28;20101;-54
2021/04/23 02:26:19;;;;;;;12.23;2.70;;;;;;;;;;5082860;28;20040;-50
2021/04/23 02:28:45;;;;;;;8.25;2.25;;;;;;;;;;5079652;28;20043;-52
2021/04/23 02:31:13;;;;;;;7.03;2.15;;;;;;;;;;5083815;28;20060;-51
2021/04/23 02:33:39;;;;;;;11.40;2.33;;;;;;;;;;5076638;28;20043;-52
2021/04/23 02:36:06;;;;;;;5.07;1.92;;;;;;;;;;5104006;28;20036;-50
2021/04/23 02:38:33;;;;;;;13.27;2.50;;;;;;;;;;5086902;28;20060;-51
2021/04/23 02:41:00;;;;;;;11.15;2.17;;;;;;;;;;5080588;28;20038;-53
2021/04/23 02:43:27;;;;;;;8.60;2.38;;;;;;;;;;5079610;28;20044;-53
2021/04/23 02:45:53;;;;;;;5.57;2.30;;;;;;;;;;5082249;28;20040;-54
2021/04/23 02:48:23;;;;;;;6.93;2.10;;;;;;;;;;5078023;28;20032;-52
2021/04/23 02:50:51;;;;;;;6.80;1.95;;;;;;;;;;5080122;27;20036;-48
2021/04/23 02:53:17;;;;;;;5.20;2.20;;;;;;;;;;5080732;28;20048;-55
2021/04/23 02:55:43;;;;;;;6.05;2.13;;;;;;;;;;5082072;28;20033;-53
2021/04/23 02:58:11;;;;;;;5.47;2.17;;;;;;;;;;5077856;28;20064;-48
2021/04/23 03:00:39;;;;;;;10.70;2.72;;;;;;;;;;5081513;28;20121;-49
2021/04/23 03:03:06;;;;;;;9.05;2.47;;;;;;;;;;5079745;28;20037;-52
2021/04/23 03:05:33;;;;;;;8.35;2.55;;;;;;;;;;5081582;28;20110;-50
2021/04/23 03:08:00;;;;;;;10.27;2.28;;;;;;;;;;5082821;28;20036;-51
2021/04/23 03:10:27;;;;;;;13.32;2.63;;;;;;;;;;5079035;28;20043;-52
2021/04/23 03:12:54;;;;;;;7.80;2.10;;;;;;;;;;5083808;28;22822;-50
2021/04/23 03:15:21;;;;;;;10.80;2.50;;;;;;;;;;5080075;28;20044;-54
2021/04/23 03:17:47;;;;;;;6.78;2.13;;;;;;;;;;5082467;28;20032;-51
2021/04/23 03:20:15;;;;;;;7.38;2.42;;;;;;;;;;5077750;28;20052;-49
2021/04/23 03:22:42;;;;;;;8.38;2.75;;;;;;;;;;5083806;28;20040;-50
2021/04/23 03:25:08;;;;;;;9.93;2.53;;;;;;;;;;5079101;28;20051;-53
2021/04/23 03:27:35;;;;;;;7.15;2.38;;;;;;;;;;5083160;28;20044;-52
2021/04/23 03:30:01;;;;;;;6.85;2.35;;;;;;;;;;5077795;28;20060;-50
2021/04/23 03:32:27;;;;;;;13.10;2.90;;;;;;;;;;5082580;28;20040;-52
2021/04/23 03:34:54;;;;;;;6.25;2.50;;;;;;;;;;5089557;28;20117;-57
2021/04/23 03:37:20;;;;;;;6.93;2.40;;;;;;;;;;5073411;28;20028;-49
2021/04/23 03:39:47;;;;;;;9.52;2.33;;;;;;;;;;5077684;28;20044;-55
2021/04/23 03:42:13;;;;;;;9.75;2.40;;;;;;;;;;5081824;28;20079;-53
2021/04/23 03:44:40;;;;;;;7.85;2.95;;;;;;;;;;5076320;28;20047;-51
2021/04/23 03:47:06;;;;;;;11.80;2.75;;;;;;;;;;5059966;28;20052;-55
2021/04/23 03:49:32;;;;;;;5.80;2.20;;;;;;;;;;5060725;28;20048;-57
2021/04/23 03:51:59;;;;;;;7.28;2.47;;;;;;;;;;5058228;28;20126;-53
2021/04/23 03:54:25;;;;;;;8.95;2.40;;;;;;;;;;5061597;28;20059;-55
2021/04/23 03:56:52;;;;;;;7.88;2.35;;;;;;;;;;5058639;28;20041;-53
2021/04/23 03:59:19;;;;;;;7.13;2.60;;;;;;;;;;5061488;28;20041;-56
2021/04/23 04:01:45;;;;;;;6.97;2.40;;;;;;;;;;5055637;28;20048;-53
2021/04/23 04:04:11;;;;;;;9.27;2.70;;;;;;;;;;5062685;28;20051;-54
2021/04/23 04:06:37;;;;;;;8.00;2.97;;;;;;;;;;5059665;28;20056;-50
2021/04/23 04:09:05;;;;;;;13.80;2.83;;;;;;;;;;5071315;28;20147;-50
2021/04/23 04:11:31;;;;;;;9.88;2.60;;;;;;;;;;5078343;28;20032;-51
2021/04/23 04:13:58;;;;;;;6.38;2.72;;;;;;;;;;5080674;28;20040;-50
2021/04/23 04:16:24;;;;;;;9.13;2.95;;;;;;;;;;5078660;28;20043;-52
2021/04/23 04:18:50;;;;;;;8.15;2.45;;;;;;;;;;5081133;28;20040;-52
2021/04/23 04:21:16;;;;;;;7.80;2.50;;;;;;;;;;5077015;28;20040;-51
2021/04/23 04:23:42;;;;;;;7.53;2.47;;;;;;;;;;5082464;28;20048;-51
2021/04/23 04:26:08;;;;;;;8.68;2.55;;;;;;;;;;5072594;28;20040;-54
2021/04/23 04:28:34;;;;;;;7.85;2.70;;;;;;;;;;5057759;28;20056;-51
2021/04/23 04:31:01;;;;;;;11.30;2.85;;;;;;;;;;5061895;28;20113;-52
2021/04/23 04:33:27;;;;;;;11.35;3.33;;;;;;;;;;5052426;28;20053;-49
2021/04/23 04:35:53;;;;;;;8.82;2.65;;;;;;;;;;5041964;28;20065;-49
2021/04/23 04:38:19;;;;;;;10.80;3.08;;;;;;;;;;5050739;28;20052;-51
2021/04/23 04:40:48;;;;;;;10.85;2.67;;;;;;;;;;5062515;28;20040;-53
2021/04/23 04:43:15;;;;;;;10.43;2.97;;;;;;;;;;5058900;28;20056;-51
2021/04/23 04:45:42;;;;;;;12.05;2.92;;;;;;;;;;5060847;28;20048;-48
2021/04/23 04:48:10;;;;;;;6.53;2.55;;;;;;;;;;5058208;28;20043;-52
2021/04/23 04:50:37;;;;;;;12.05;2.90;;;;;;;;;;5064125;28;20059;-49
2021/04/23 04:53:04;;;;;;;10.07;2.88;;;;;;;;;;5071725;28;20104;-52
2021/04/23 04:55:33;;;;;;;13.23;2.95;;;;;;;;;;5060681;28;20041;-50
2021/04/23 04:57:59;;;;;;;6.38;2.70;;;;;;;;;;5055940;28;20113;-51
2021/04/23 05:00:26;;;;;;;10.77;2.92;;;;;;;;;;5060939;28;20057;-50
2021/04/23 05:02:53;;;;;;;11.40;3.10;;;;;;;;;;5058130;28;20036;-48
2021/04/23 05:05:21;;;;;;;7.28;2.85;;;;;;;;;;5060779;28;20039;-50
2021/04/23 05:07:49;;;;;;;11.52;2.92;;;;;;;;;;5061087;28;20061;-50
2021/04/23 05:10:15;;;;;;;6.37;2.73;;;;;;;;;;5055839;28;20113;-55
2021/04/23 05:12:41;;;;;;;10.35;3.17;;;;;;;;;;5060198;28;20037;-53
2021/04/23 05:15:08;;;;;;;12.88;3.20;;;;;;;;;;5055127;28;20036;-53
2021/04/23 05:17:34;;;;;;;16.77;3.20;;;;;;;;;;5060996;28;20037;-50
2021/04/23 05:20:00;;;;;;;8.95;3.08;;;;;;;;;;5053496;28;20056;-52
2021/04/23 05:22:27;;;;;;;13.35;3.10;;;;;;;;;;5054910;28;20033;-48
2021/04/23 05:24:53;;;;;;;8.27;2.50;;;;;;;;;;5045694;28;20033;-53
2021/04/23 05:27:19;;;;;;;15.30;3.22;;;;;;;;;;5052662;28;20119;-50
2021/04/23 05:29:45;;;;;;;10.38;3.22;;;;;;;;;;5051266;28;20033;-52
2021/04/23 05:32:11;;;;;;;11.02;3.10;;;;;;;;;;5049255;28;20037;-49
2021/04/23 05:34:37;;;;;;;12.55;3.30;;;;;;;;;;5044458;28;20151;-51
2021/04/23 05:37:08;;;;;;;14.82;3.58;;;;;;;;;;5050553;28;20061;-50
2021/04/23 05:39:35;;;;;;;10.48;3.25;;;;;;;;;;5045804;28;20060;-52
2021/04/23 05:42:02;;;;;;;15.60;2.90;;;;;;;;;;5047957;28;20095;-52
2021/04/23 05:44:27;;;;;;;8.35;3.08;;;;;;;;;;5046458;28;20073;-50
2021/04/23 05:46:53;;;;;;;16.73;3.63;;;;;;;;;;5055607;28;20049;-51
2021/04/23 05:49:19;;;;;;;13.00;3.63;;;;;;;;;;5051589;28;20041;-51
2021/04/23 05:51:46;;;;;;;11.45;3.88;;;;;;;;;;5057969;28;20118;-54
2021/04/23 05:54:11;;;;;;;11.93;2.85;;;;;;;;;;5060840;28;20045;-47
2021/04/23 05:56:38;;;;;;;15.93;2.95;;;;;;;;;;5057831;28;20048;-47
2021/04/23 05:59:08;;;;;;;12.40;2.78;;;;;;;;;;5062117;28;20035;-51
2021/04/23 06:01:34;;;;;;;11.35;2.60;;;;;;;;;;5059587;28;20036;-53
2021/04/23 06:04:00;;;;;;;14.27;3.13;;;;;;;;;;5061590;28;20056;-51
2021/04/23 06:06:26;;;;;;;10.63;3.08;;;;;;;;;;5056158;28;20052;-55
2021/04/23 06:08:52;;;;;;;12.95;2.90;;;;;;;;;;5060733;28;20044;-52
2021/04/23 06:11:20;;;;;;;13.93;4.45;;;;;;;;;;5056671;28;20028;-51
2021/04/23 06:13:48;;;;;;;15.35;4.28;;;;;;;;;;5059323;28;20040;-52
2021/04/23 06:16:14;;;;;;;15.98;3.10;;;;;;;;;;5055882;28;20029;-51
2021/04/23 06:18:46;;;;;;;6.53;2.63;;;;;;;;;;5059533;28;20028;-51
2021/04/23 06:21:12;;;;;;;9.68;2.83;;;;;;;;;;5058919;28;20049;-52
2021/04/23 06:23:38;;;;;;;20.83;3.20;;;;;;;;;;5061688;28;20025;-51
2021/04/23 06:26:05;;;;;;;14.07;2.67;;;;;;;;;;5060268;28;20045;-51
2021/04/23 06:28:37;;;;;;;12.10;2.53;;;;;;;;;;5061285;28;20054;-50
2021/04/23 06:31:04;;;;;;;9.75;2.58;;;;;;;;;;5061089;28;20146;-51
2021/04/23 06:33:34;;;;;;;10.07;2.85;;;;;;;;;;5057682;28;20053;-52
2021/04/23 06:36:01;;;;;;;8.50;2.70;;;;;;;;;;5063061;28;20048;-54
2021/04/23 06:38:27;;;;;;;9.70;2.40;;;;;;;;;;5058990;28;20048;-54
2021/04/23 06:40:53;;;;;;;9.20;2.78;;;;;;;;;;5062541;28;20052;-57
2021/04/23 06:43:21;;;;;;;9.80;2.72;;;;;;;;;;5057797;28;20037;-51
2021/04/23 06:45:47;;;;;;;13.77;3.10;;;;;;;;;;5061843;28;20039;-52
2021/04/23 06:48:23;;;;;;;9.35;3.33;;;;;;;;;;5059316;28;20280;-51
2021/04/23 06:50:49;;;;;;;9.68;2.70;;;;;;;;;;5063078;28;20037;-50
2021/04/23 06:53:17;;;;;;;12.98;3.65;;;;;;;;;;5062721;28;20029;-50
2021/04/23 06:55:45;;;;;;;10.23;3.35;;;;;;;;;;5065728;28;20040;-51
2021/04/23 06:58:17;;;;;;;14.15;3.30;;;;;;;;;;5062146;28;20072;-55
2021/04/23 07:00:43;;;;;;;16.42;3.67;;;;;;;;;;5064050;28;20105;-48
2021/04/23 07:03:10;;;;;;;13.80;2.92;;;;;;;;;;5061793;28;20073;-53
2021/04/23 07:05:37;;;;;;;8.05;3.35;;;;;;;;;;5065753;28;20056;-51
2021/04/23 07:08:04;;;;;;;10.80;2.78;;;;;;;;;;5055835;28;20193;-51
2021/04/23 07:10:30;;;;;;;10.38;2.67;;;;;;;;;;5064909;28;20232;-54
2021/04/23 07:12:57;;;;;;;9.98;2.40;;;;;;;;;;5061892;28;20185;-49
2021/04/23 07:15:24;;;;;;;16.55;3.28;;;;;;;;;;5064531;28;20033;-49
2021/04/23 07:17:53;;;;;;;12.88;3.30;;;;;;;;;;5064812;28;20177;-56
2021/04/23 07:20:19;;;;;;;;;;;;;;;;;;5062112;28;20037;-50
2021/04/23 07:22:47;;;;;;;10.25;3.10;;;;;;;;;;5062671;28;19930;-51
2021/04/23 07:25:14;;;;;;;6.82;2.42;;;;;;;;;;5060611;28;20033;-49
2021/04/23 07:27:42;;;;;;;8.68;2.33;;;;;;;;;;5066107;28;20163;-53
2021/04/23 07:30:09;;;;;;;12.80;2.38;;;;;;;;;;5063106;28;20129;-54
2021/04/23 07:32:35;;;;;;;11.43;2.60;;;;;;;;;;5065504;28;20037;-53
2021/04/23 07:35:02;;;;;;;9.65;2.25;;;;;;;;;;5061895;28;20116;-50
2021/04/23 07:37:35;;;;;;;15.80;2.53;;;;;;;;;;5065952;28;20044;-56
2021/04/23 07:40:02;;;;;;;10.50;2.78;;;;;;;;;;5058619;28;20037;-52
2021/04/23 07:42:28;;;;;;;6.90;2.00;;;;;;;;;;5065077;28;20040;-51
2021/04/23 07:44:55;;;;;;;7.05;2.13;;;;;;;;;;5061621;28;20043;-50
2021/04/23 07:47:24;;;;;;;9.30;1.83;;;;;;;;;;5063840;28;20076;-54
2021/04/23 07:49:50;;;;;;;13.48;2.08;;;;;;;;;;5059324;28;20102;-50
2021/04/23 07:52:16;;;;;;;6.13;1.80;;;;;;;;;;5064924;28;20118;-52
2021/04/23 07:54:42;;;;;;;7.18;1.63;;;;;;;;;;5061637;28;20033;-54
2021/04/23 07:57:10;;;;;;;6.35;1.98;;;;;;;;;;5063313;28;20037;-54
2021/04/23 07:59:37;;;;;;;10.80;1.55;;;;;;;;;;5062947;28;20056;-53
2021/04/23 08:02:04;;;;;;;7.35;1.63;;;;;;;;;;5059918;28;20346;-54
2021/04/23 08:04:30;;;;;;;8.80;1.80;;;;;;;;;;5063715;28;20040;-57
2021/04/23 08:06:56;;;;;;;7.95;1.80;;;;;;;;;;5061943;28;20029;-51
2021/04/23 08:09:23;;;;;;;11.98;1.77;;;;;;;;;;5066626;28;20039;-55
2021/04/23 08:11:49;;;;;;;4.70;1.55;;;;;;;;;;5060864;28;20028;-55
2021/04/23 08:14:16;;;;;;;12.13;1.92;;;;;;;;;;5064657;28;20047;-57
2021/04/23 08:16:42;;;;;;;17.58;2.13;;;;;;;;;;5061068;28;20048;-54
2021/04/23 08:19:08;;;;;;;8.40;1.55;;;;;;;;;;5064046;28;20109;-53
2021/04/23 08:21:34;;;;;;;8.82;1.40;;;;;;;;;;5058758;28;20118;-57
2021/04/23 08:24:00;;;;;;;11.07;2.38;;;;;;;;;;5064409;28;20040;-50
2021/04/23 08:26:26;;;;;;;7.40;1.45;;;;;;;;;;5061562;28;20045;-53
2021/04/23 08:28:57;;;;;;;7.93;1.38;;;;;;;;;;5083381;28;20036;-52
2021/04/23 08:31:24;;;;;;;8.13;1.70;;;;;;;;;;5081243;28;20039;-53
2021/04/23 08:33:53;;;;;;;12.43;1.73;;;;;;;;;;5085371;28;20096;-54
2021/04/23 08:36:19;;;;;;;10.32;1.95;;;;;;;;;;5081057;28;20083;-54
2021/04/23 08:38:53;;;;;;;9.52;1.65;;;;;;;;;;5083229;28;20075;-51
2021/04/23 08:41:19;;;;;;;7.47;1.50;;;;;;;;;;5079912;28;20032;-54
2021/04/23 08:43:45;;;;;;;6.00;1.60;;;;;;;;;;5083072;28;20117;-55
2021/04/23 08:46:11;;;;;;;3.55;1.15;;;;;;;;;;5083874;28;20049;-53
2021/04/23 08:48:55;;;;;;;6.20;1.40;;;;;;;;;;5079478;28;20040;-53
2021/04/23 08:51:21;;;;;;;5.82;1.35;;;;;;;;;;5082977;28;20044;-53
2021/04/23 08:53:50;;;;;;;7.55;1.23;;;;;;;;;;5081595;28;20025;-48
2021/04/23 08:56:16;;;;;;;7.78;1.25;;;;;;;;;;5078641;28;20053;-51
2021/04/23 08:58:44;;;;;;;6.30;1.40;;;;;;;;;;5084977;28;20029;-50
2021/04/23 09:01:10;;;;;;;6.30;1.50;;;;;;;;;;5084828;28;20029;-53
2021/04/23 09:03:36;;;;;;;6.38;1.58;;;;;;;;;;5079100;28;20093;-53
2021/04/23 09:06:10;;;;;;;5.35;1.45;;;;;;;;;;5084091;28;20037;-53
2021/04/23 09:08:47;;;;;;;5.57;1.70;;;;;;;;;;5079618;28;20124;-57
2021/04/23 09:11:14;;;;;;;5.25;1.33;;;;;;;;;;5084703;28;20117;-51
2021/04/23 09:13:48;;;;;;;4.80;1.50;;;;;;;;;;5079403;28;20136;-55
2021/04/23 09:16:14;;;;;;;12.65;1.92;;;;;;;;;;5083953;28;20044;-52
2021/04/23 09:18:46;;;;;;;9.93;1.80;;;;;;;;;;5079360;28;20033;-52
2021/04/23 09:21:15;;;;;;;10.57;2.40;;;;;;;;;;5084690;28;20037;-52
2021/04/23 09:23:48;;;;;;;9.35;1.63;;;;;;;;;;5080153;28;20036;-50
2021/04/23 09:26:28;;;;;;;6.25;1.60;;;;;;;;;;5082537;28;20047;-56
2021/04/23 09:28:58;;;;;;;8.55;1.95;;;;;;;;;;5078639;28;20028;-57
2021/04/23 09:31:25;;;;;;;9.32;1.77;;;;;;;;;;5083294;28;20024;-57
2021/04/23 09:33:51;;;;;;;10.75;1.90;;;;;;;;;;5079505;28;20044;-59
2021/04/23 09:36:31;;;;;;;15.25;1.88;;;;;;;;;;5084148;28;20032;-53
2021/04/23 09:39:17;;;;;;;6.28;1.40;;;;;;;;;;5080078;28;20047;-56
2021/04/23 09:41:44;;;;;;;8.27;1.50;;;;;;;;;;5053529;28;20063;-57
2021/04/23 09:44:26;;;;;;;6.65;1.52;;;;;;;;;;5059381;28;20037;-54
2021/04/23 09:46:56;;;;;;;8.15;1.67;;;;;;;;;;5055078;28;20093;-52
2021/04/23 09:49:28;;;;;;;7.75;1.83;;;;;;;;;;5058259;28;20060;-57
2021/04/23 09:51:55;;;;;;;14.32;2.50;;;;;;;;;;5062623;28;20071;-57
2021/04/23 09:54:23;;;;;;;11.73;2.03;;;;;;;;;;5059290;28;20037;-54
2021/04/23 09:56:49;;;;;;;3.73;1.17;;;;;;;;;;5063391;28;20041;-52
2021/04/23 09:59:18;;;;;;;9.65;1.25;;;;;;;;;;5064445;28;20036;-56
2021/04/23 10:01:44;;;;;;;;;;;;;;;;;;5060558;28;20041;-51
2021/04/23 10:04:19;;;;;;;6.63;2.03;;;;;;;;;;5061873;28;19917;-53
2021/04/23 10:06:45;;;;;;;8.10;1.70;;;;;;;;;;5058168;28;20044;-57
2021/04/23 10:09:13;;;;;;;5.70;1.85;;;;;;;;;;5061917;28;20047;-51
2021/04/23 10:11:40;;;;;;;10.47;1.73;;;;;;;;;;5058774;28;20033;-54
2021/04/23 10:14:10;;;;;;;6.47;1.77;;;;;;;;;;5062623;28;20284;-52
2021/04/23 10:16:36;;;;;;;7.45;1.42;;;;;;;;;;5058854;28;20044;-52
2021/04/23 10:19:04;;;;;;;11.98;1.45;;;;;;;;;;5060282;28;20191;-53
2021/04/23 10:21:30;;;;;;;9.10;1.45;;;;;;;;;;5049213;28;20037;-53
2021/04/23 10:23:56;;;;;;;8.13;1.58;;;;;;;;;;5061861;28;20050;-57
2021/04/23 10:26:23;;;;;;;5.57;1.27;;;;;;;;;;5062139;28;20048;-51
2021/04/23 10:28:50;;;;;;;8.00;1.65;;;;;;;;;;5064442;28;20097;-54
2021/04/23 10:31:16;;;;;;;7.40;1.65;;;;;;;;;;5059631;28;20048;-54
2021/04/23 10:33:42;;;;;;;6.75;1.23;;;;;;;;;;5065612;28;20037;-55
2021/04/23 10:36:08;;;;;;;10.70;1.55;;;;;;;;;;5062177;28;20052;-49
2021/04/23 10:38:37;;;;;;;5.72;1.52;;;;;;;;;;5076819;28;20068;-57
2021/04/23 10:41:05;;;;;;;5.88;1.60;;;;;;;;;;5082613;28;20056;-55
2021/04/23 10:43:33;;;;;;;9.07;1.80;;;;;;;;;;5064157;28;20041;-55
2021/04/23 10:46:06;;;;;;;6.25;1.67;;;;;;;;;;5066842;28;20040;-56
2021/04/23 10:48:37;;;;;;;6.28;1.55;;;;;;;;;;5080613;28;20040;-52
2021/04/23 10:51:06;;;;;;;12.75;1.75;;;;;;;;;;5083770;28;20041;-50
2021/04/23 10:53:35;;;;;;;11.43;1.80;;;;;;;;;;5082372;28;20040;-51
2021/04/23 10:56:03;;;;;;;10.18;1.55;;;;;;;;;;5084668;28;20113;-54
2021/04/23 10:58:40;;;;;;;6.93;1.27;;;;;;;;;;5079455;28;20039;-53
2021/04/23 11:01:21;;;;;;;5.47;1.52;;;;;;;;;;5085702;28;20036;-54
2021/04/23 11:03:57;;;;;;;6.28;1.45;;;;;;;;;;5067181;28;20068;-56
2021/04/23 11:06:30;;;;;;;7.30;1.92;;;;;;;;;;5082170;28;20036;-53
2021/04/23 11:09:10;;;;;;;7.15;1.50;;;;;;;;;;5077151;28;20110;-51
2021/04/23 11:11:36;;;;;;;11.10;1.95;;;;;;;;;;5083893;28;20067;-54
2021/04/23 11:14:20;;;;;;;7.60;1.92;;;;;;;;;;5079784;28;20072;-55
2021/04/23 11:16:47;;;;;;;8.50;1.50;;;;;;;;;;5085816;28;20036;-53
2021/04/23 11:19:35;;;;;;;12.25;1.88;;;;;;;;;;5080809;28;20040;-58
2021/04/23 11:22:11;;;;;;;7.97;1.42;;;;;;;;;;5085110;28;20097;-56
2021/04/23 11:24:38;;;;;;;5.40;1.55;;;;;;;;;;5082144;28;20056;-53
2021/04/23 11:27:06;;;;;;;8.45;1.83;;;;;;;;;;5078855;28;20124;-55
2021/04/23 11:29:34;;;;;;;6.07;1.80;;;;;;;;;;5082643;28;20068;-54
2021/04/23 11:32:14;;;;;;;5.97;1.40;;;;;;;;;;5085232;28;20033;-52
2021/04/23 11:34:43;;;;;;;11.77;1.75;;;;;;;;;;5082028;28;20060;-58
2021/04/23 11:37:11;;;;;;;9.30;2.00;;;;;;;;;;5084380;28;20032;-55
2021/04/23 11:39:42;;;;;;;7.68;1.67;;;;;;;;;;5080524;28;20052;-55
2021/04/23 11:42:09;;;;;;;7.43;1.55;;;;;;;;;;5085348;28;20044;-56
2021/04/23 11:44:40;;;;;;;8.68;1.45;;;;;;;;;;5080716;28;20032;-56
2021/04/23 11:47:07;;;;;;;6.10;1.77;;;;;;;;;;5086021;28;20047;-58
2021/04/23 11:49:33;;;;;;;8.48;1.50;;;;;;;;;;5081760;28;20029;-57
2021/04/23 11:52:01;;;;;;;7.75;1.55;;;;;;;;;;5083409;28;20029;-56
2021/04/23 11:54:31;;;;;;;9.70;2.00;;;;;;;;;;5081508;28;20044;-57
2021/04/23 11:56:57;;;;;;;7.18;1.73;;;;;;;;;;5085487;28;20042;-57
2021/04/23 11:59:23;;;;;;;10.85;1.70;;;;;;;;;;5079619;28;20132;-55
2021/04/23 12:01:50;;;;;;;10.15;1.88;;;;;;;;;;5086439;28;20117;-57
2021/04/23 12:04:37;;;;;;;5.63;1.60;;;;;;;;;;5079291;28;20036;-55
2021/04/23 12:07:03;;;;;;;7.43;1.80;;;;;;;;;;5063550;28;20043;-60
2021/04/23 12:09:29;;;;;;;11.32;1.63;;;;;;;;;;5062373;28;20045;-58
2021/04/23 12:12:02;;;;;;;5.50;1.70;;;;;;;;;;5083400;28;20170;-59
2021/04/23 12:14:39;;;;;;;13.65;2.20;;;;;;;;;;5083020;28;20055;-58
2021/04/23 12:17:05;;;;;;;12.88;2.97;;;;;;;;;;5082735;28;20040;-50
2021/04/23 12:19:32;;;;;;;7.45;2.47;;;;;;;;;;5084094;28;20055;-56
2021/04/23 12:21:58;;;;;;;11.98;2.30;;;;;;;;;;5082376;28;20047;-53
2021/04/23 12:24:24;;;;;;;11.30;2.53;;;;;;;;;;5084763;28;20028;-57
2021/04/23 12:26:50;;;;;;;9.70;2.22;;;;;;;;;;5081239;28;20048;-55
2021/04/23 12:29:21;;;;;;;10.30;2.75;;;;;;;;;;5086002;28;20036;-55
2021/04/23 12:31:47;;;;;;;8.45;2.08;;;;;;;;;;5077263;28;20055;-58
2021/04/23 12:34:16;;;;;;;13.55;2.33;;;;;;;;;;5085603;28;20040;-59
2021/04/23 12:36:43;;;;;;;7.75;1.83;;;;;;;;;;5080697;28;20036;-55
2021/04/23 12:39:19;;;;;;;8.25;2.05;;;;;;;;;;5085301;28;20048;-60
2021/04/23 12:41:46;;;;;;;10.65;2.30;;;;;;;;;;5079273;28;20046;-53
2021/04/23 12:44:13;;;;;;;6.55;2.08;;;;;;;;;;5083858;28;20044;-57
2021/04/23 12:46:40;;;;;;;10.77;2.42;;;;;;;;;;5080955;28;20095;-55
2021/04/23 12:49:11;;;;;;;10.85;2.22;;;;;;;;;;5082366;28;20064;-60
2021/04/23 12:51:43;;;;;;;8.32;2.20;;;;;;;;;;5080132;28;20102;-60
2021/04/23 12:54:10;;;;;;;8.65;1.90;;;;;;;;;;5082481;28;20036;-59
2021/04/23 12:56:36;;;;;;;9.15;2.13;;;;;;;;;;5079936;28;20021;-60
2021/04/23 12:59:05;;;;;;;11.35;2.42;;;;;;;;;;5081585;28;20040;-55
2021/04/23 13:01:31;;;;;;;5.25;1.65;;;;;;;;;;5080491;28;20024;-57
2021/04/23 13:04:11;;;;;;;7.57;2.15;;;;;;;;;;5082600;28;20125;-60
2021/04/23 13:06:38;;;;;;;5.20;1.55;;;;;;;;;;5067098;28;20101;-54
2021/04/23 13:09:06;;;;;;;7.13;1.60;;;;;;;;;;5081355;28;20072;-56
2021/04/23 13:11:32;;;;;;;;;;;;;;;;;;5083006;28;20036;-59
2021/04/23 13:13:59;;;;;;;10.50;2.00;;;;;;;;;;5078590;28;19924;-59
2021/04/23 13:16:24;;;;;;;6.18;2.10;;;;;;;;;;5083910;28;20080;-59
2021/04/23 13:18:56;;;;;;;5.85;1.60;;;;;;;;;;5078111;28;20050;-60
2021/04/23 13:21:30;;;;;;;9.52;1.73;;;;;;;;;;5084568;28;20107;-58
2021/04/23 13:23:57;;;;;;;15.13;2.08;;;;;;;;;;5079468;28;20037;-59
2021/04/23 13:26:30;;;;;;;5.63;1.88;;;;;;;;;;5083679;28;20141;-58
2021/04/23 13:28:58;;;;;;;11.63;2.10;;;;;;;;;;5076728;28;20043;-58
2021/04/23 13:31:25;;;;;;;8.90;1.92;;;;;;;;;;5080412;28;20048;-60
2021/04/23 13:33:51;;;;;;;12.50;2.20;;;;;;;;;;5079031;28;20036;-57
2021/04/23 13:36:18;;;;;;;7.43;2.40;;;;;;;;;;5084128;28;20033;-60
2021/04/23 13:38:51;;;;;;;7.60;1.98;;;;;;;;;;5078880;28;20043;-59
2021/04/23 13:41:21;;;;;;;6.90;2.03;;;;;;;;;;5082341;28;20056;-59
2021/04/23 13:43:49;;;;;;;9.82;1.88;;;;;;;;;;5081526;28;20113;-59
2021/04/23 13:46:16;;;;;;;7.50;1.67;;;;;;;;;;5083047;28;20044;-60
2021/04/23 13:48:58;;;;;;;8.00;1.80;;;;;;;;;;5079366;28;20028;-58
2021/04/23 13:51:27;;;;;;;7.63;1.70;;;;;;;;;;5082505;28;20020;-57
2021/04/23 13:53:54;;;;;;;5.90;1.90;;;;;;;;;;5080615;28;20037;-59
2021/04/23 13:56:22;;;;;;;8.80;1.95;;;;;;;;;;5083449;28;20047;-57
2021/04/23 13:59:00;;;;;;;8.73;2.42;;;;;;;;;;5078971;28;20032;-60
2021/04/23 14:01:27;;;;;;;7.53;1.73;;;;;;;;;;5087012;28;20040;-58
2021/04/23 14:03:53;;;;;;;9.27;2.40;;;;;;;;;;5085803;28;20052;-59
2021/04/23 14:06:19;;;;;;;9.18;1.83;;;;;;;;;;5084224;28;20051;-55
2021/04/23 14:08:47;;;;;;;9.27;2.10;;;;;;;;;;5083249;28;20028;-58
2021/04/23 14:11:14;;;;;;;6.55;1.90;;;;;;;;;;5081560;28;20037;-58
2021/04/23 14:13:48;;;;;;;4.40;1.67;;;;;;;;;;5087284;28;20029;-58
2021/04/23 14:16:16;;;;;;;7.38;1.92;;;;;;;;;;5083707;28;20056;-60
2021/04/23 14:18:43;;;;;;;6.90;2.00;;;;;;;;;;5085255;28;20044;-58
2021/04/23 14:21:08;;;;;;;6.53;1.92;;;;;;;;;;5082928;28;20043;-58
2021/04/23 14:23:34;;;;;;;5.35;1.40;;;;;;;;;;5086581;28;20036;-53
2021/04/23 14:26:00;;;;;;;6.00;1.67;;;;;;;;;;5082254;28;20047;-57
2021/04/23 14:28:35;;;;;;;7.75;1.88;;;;;;;;;;5086645;28;20043;-56
2021/04/23 14:31:01;;;;;;;5.65;1.90;;;;;;;;;;5082297;28;20036;-56
2021/04/23 14:33:28;;;;;;;6.00;1.80;;;;;;;;;;5087069;28;20042;-56
2021/04/23 14:35:54;;;;;;;6.90;1.88;;;;;;;;;;5081464;28;20043;-58
2021/04/23 14:38:22;;;;;;;7.35;1.80;;;;;;;;;;5083307;28;20044;-58
2021/04/23 14:40:48;;;;;;;10.98;2.22;;;;;;;;;;5082195;28;20041;-58
2021/04/23 14:43:14;;;;;;;8.23;1.55;;;;;;;;;;5086323;28;20044;-59